• Join FlightAware (Why Join?)
  • Login
  • US Flag 
05:44PM EDT


 

Airport Tracker/Info


-or-


 

Live Flight TrackerFlight Track Log ✈ VH-NCA ✈ 04-Sep-2013 ✈ YSWG / WGA - YSBK / BWU

Flight Track Log - Related Links

Times and Time Zones

All times are in EDT time to prevent confusion due to time zone crossing. See the VH-NCA flight status page for this flight to view local times or setup timezone preferences in your user account.

Time Position Orientation Groundspeed Altitude Reporting Facility
EDT Latitude Longitude Course Direction KTS MPH feet Rate Location/Type
04:06AM -35.1406 147.5389 76° East 9,000  Level Aus ATC (Calculated)
04:07AM -35.1406 147.5389 76° East 9,000 -2,160 Level Aus ATC (Calculated)
04:07AM -35.1155 147.6087 229° Southwest 9,000 -2,400 Level Aus ATC (Calculated)
04:09AM -35.0961 147.6623 66° East  Level FlightAware Approximate
04:09AM -35.1302 147.5882 66° East 100 115 3,700  Level Aus ATC (RADAR)
04:09AM -35.1243 147.6068 69° East 101 116 4,000 540 Climbing Aus ATC (RADAR)
04:10AM -35.1128 147.6406 68° East 109 125 4,600 540 Climbing Aus ATC (RADAR)
04:11AM -35.1000 147.6740 65° Northeast 108 124 5,100 480 Climbing Aus ATC (RADAR)
04:12AM -35.0908 147.6955 63° Northeast 107 123 5,400 480 Climbing Aus ATC (RADAR)
04:13AM -35.0834 147.7153 65° Northeast 109 125 5,700 480 Climbing Aus ATC (RADAR)
04:13AM -35.0738 147.7404 65° Northeast 108 124 6,100 480 Climbing Aus ATC (RADAR)
04:14AM -35.0603 147.7784 67° East 115 132 6,600 480 Climbing Aus ATC (RADAR)
04:15AM -35.0477 147.8119 65° Northeast 120 138 7,100 360 Climbing Aus ATC (RADAR)
04:16AM -35.0346 147.8439 63° Northeast 124 143 7,300 360 Climbing Aus ATC (RADAR)
04:17AM -35.0246 147.8721 67° East 121 139 7,700 480 Climbing Aus ATC (RADAR)
04:18AM -35.0165 147.8946 66° East 123 142 8,000 480 Climbing Aus ATC (RADAR)
04:18AM -35.0052 147.9272 67° East 126 145 8,400 540 Climbing Aus ATC (RADAR)
04:19AM -34.9911 147.9668 67° East 127 146 9,000 240 Climbing Aus ATC (RADAR)
04:20AM -34.9754 148.0159 69° East 148 170 9,000  Level Aus ATC (RADAR)
04:21AM -34.9620 148.0566 68° East 152 175 9,000  Level Aus ATC (RADAR)
04:22AM -34.9489 148.0929 66° East 155 178 9,000  Level Aus ATC (RADAR)
04:23AM -34.9369 148.1238 65° Northeast 150 173 9,000  Level Aus ATC (RADAR)
04:23AM -34.9224 148.1584 63° Northeast 151 174 9,000  Level Aus ATC (RADAR)
04:24AM -34.9125 148.1812 62° Northeast 151 174 9,000  Level Aus ATC (RADAR)
04:25AM -34.9003 148.2072 60° Northeast 151 174 9,000  Level Aus ATC (RADAR)
04:26AM -34.8789 148.2513 59° Northeast 150 173 9,000  Level Aus ATC (RADAR)
04:27AM -34.8583 148.2960 61° Northeast 149 171 9,000  Level Aus ATC (RADAR)
04:27AM -34.8462 148.3219 60° Northeast 149 171 9,000  Level Aus ATC (RADAR)
04:28AM -34.8346 148.3478 61° Northeast 148 170 9,000  Level Aus ATC (RADAR)
04:28AM -34.8199 148.3813 62° Northeast 148 170 9,000  Level Aus ATC (RADAR)
04:29AM -34.8009 148.4261 63° Northeast 148 170 9,000  Level Aus ATC (RADAR)
04:30AM -34.7822 148.4713 63° Northeast 148 170 9,000  Level Aus ATC (RADAR)
04:31AM -34.7634 148.5162 63° Northeast 148 170 9,000  Level Aus ATC (RADAR)
04:32AM -34.7496 148.5500 64° Northeast 146 168 9,000  Level Aus ATC (RADAR)
04:33AM -34.7367 148.5801 62° Northeast 148 170 9,000  Level Aus ATC (RADAR)
04:34AM -34.7227 148.6139 63° Northeast 147 169 9,000  Level Aus ATC (RADAR)
04:35AM -34.7033 148.6586 62° Northeast 148 170 9,000  Level Aus ATC (RADAR)
04:36AM -34.6841 148.7042 63° Northeast 149 171 9,000  Level Aus ATC (RADAR)
04:37AM -34.6643 148.7495 62° Northeast 150 173 9,000  Level Aus ATC (RADAR)
04:37AM -34.6499 148.7837 63° Northeast 150 173 9,000  Level Aus ATC (RADAR)
04:38AM -34.6386 148.8101 63° Northeast 148 170 9,000  Level Aus ATC (RADAR)
04:39AM -34.6240 148.8441 62° Northeast 148 170 9,000  Level Aus ATC (RADAR)
04:40AM -34.6042 148.8896 62° Northeast 150 173 9,000  Level Aus ATC (RADAR)
04:41AM -34.5857 148.9309 62° Northeast 149 171 9,000  Level Aus ATC (RADAR)
04:42AM -34.5639 148.9802 62° Northeast 151 174 9,000  Level Aus ATC (RADAR)
04:42AM -34.5511 149.0105 63° Northeast 150 173 9,000  Level Aus ATC (RADAR)
04:43AM -34.5383 149.0413 63° Northeast 150 173 9,000  Level Aus ATC (RADAR)
04:44AM -34.5253 149.0721 63° Northeast 151 174 9,000  Level Aus ATC (RADAR)
04:45AM -34.5042 149.1221 63° Northeast 151 174 9,000  Level Aus ATC (RADAR)
04:46AM -34.4806 149.1752 62° Northeast 149 171 9,000  Level Aus ATC (RADAR)
04:47AM -34.4651 149.2096 61° Northeast 152 175 9,000  Level Aus ATC (RADAR)
04:48AM -34.4451 149.2546 62° Northeast 150 173 9,000  Level Aus ATC (RADAR)
04:49AM -34.4184 149.3156 62° Northeast 150 173 9,000  Level Aus ATC (RADAR)
04:50AM -34.4006 149.3573 63° Northeast 149 171 9,000  Level Aus ATC (RADAR)
04:51AM -34.3760 149.4138 62° Northeast 149 171 9,000  Level Aus ATC (RADAR)
04:52AM -34.3567 149.4594 63° Northeast 150 173 9,000  Level Aus ATC (RADAR)
04:53AM -34.3435 149.4891 62° Northeast 147 169 9,000  Level Aus ATC (RADAR)
04:53AM -34.3312 149.5150 60° Northeast 149 171 9,000  Level Aus ATC (RADAR)
04:54AM -34.3143 149.5521 61° Northeast 149 171 9,000  Level Aus ATC (RADAR)
04:55AM -34.2943 149.5969 62° Northeast 150 173 9,000  Level Aus ATC (RADAR)
04:56AM -34.2739 149.6421 61° Northeast 151 174 9,000  Level Aus ATC (RADAR)
04:57AM -34.2539 149.6888 63° Northeast 154 177 9,000  Level Aus ATC (RADAR)
04:58AM -34.2415 149.7198 64° Northeast 153 176 9,000  Level Aus ATC (RADAR)
04:58AM -34.2298 149.7464 62° Northeast 152 175 9,000  Level Aus ATC (RADAR)
04:59AM -34.2146 149.7808 62° Northeast 152 175 9,000  Level Aus ATC (RADAR)
05:00AM -34.1943 149.8264 62° Northeast 151 174 9,000  Level Aus ATC (RADAR)
05:01AM -34.1725 149.8754 62° Northeast 149 171 9,000  Level Aus ATC (RADAR)
05:02AM -34.1507 149.9245 62° Northeast 152 175 9,000  Level Aus ATC (RADAR)
05:03AM -34.1361 149.9581 62° Northeast 148 170 9,000  Level Aus ATC (RADAR)
05:04AM -34.1243 149.9845 62° Northeast 150 173 9,000  Level Aus ATC (RADAR)
05:04AM -34.1109 150.0151 62° Northeast 153 176 9,000  Level Aus ATC (RADAR)
05:05AM -34.1007 150.0377 61° Northeast 152 175 9,000  Level Aus ATC (RADAR)
05:05AM -34.0890 150.0640 62° Northeast 150 173 9,000  Level Aus ATC (RADAR)
05:06AM -34.0702 150.1053 61° Northeast 151 174 9,000  Level Aus ATC (RADAR)
05:07AM -34.0492 150.1494 60° Northeast 149 171 9,000  Level Aus ATC (RADAR)
05:08AM -34.0339 150.1825 61° Northeast 149 171 9,000  Level Aus ATC (RADAR)
05:09AM -34.0219 150.2086 61° Northeast 149 171 9,000  Level Aus ATC (RADAR)
05:10AM -34.0049 150.2457 61° Northeast 149 171 9,000  Level Aus ATC (RADAR)
05:11AM -33.9829 150.2904 59° Northeast 153 176 9,000 -300 Level Aus ATC (RADAR)
05:11AM -33.9613 150.3332 59° Northeast 160 184 8,500 -540 Descending Aus ATC (RADAR)
05:12AM -33.9399 150.3815 62° Northeast 158 182 8,000 -540 Descending Aus ATC (RADAR)
05:13AM -33.9249 150.4173 63° Northeast 155 178 7,600 -540 Descending Aus ATC (RADAR)
05:14AM -33.9220 150.4471 83° East 155 178 7,300 -600 Descending Aus ATC (RADAR)
05:14AM -33.9247 150.4823 95° East 153 176 6,900 -600 Descending Aus ATC (RADAR)
05:15AM -33.9265 150.5090 95° East 154 177 6,600 -600 Descending Aus ATC (RADAR)
05:16AM -33.9284 150.5396 94° East 152 175 6,300 -600 Descending Aus ATC (RADAR)
05:16AM -33.9320 150.5876 95° East 151 174 5,700 -720 Descending Aus ATC (RADAR)
05:17AM -33.9360 150.6396 95° East 151 174 5,000 -660 Descending Aus ATC (RADAR)
05:18AM -33.9385 150.6696 96° East 150 173 4,700 -600 Descending Aus ATC (RADAR)
05:19AM -33.9413 150.6988 97° East 146 168 4,300 -780 Descending Aus ATC (RADAR)
05:19AM -33.9444 150.7348 96° East 138 159 3,700 -780 Descending Aus ATC (RADAR)
05:20AM -33.9468 150.7791 94° East 127 146 3,000 -780 Descending Aus ATC (RADAR)
05:21AM -33.9462 150.8232 89° East 127 146 2,200 -420 Descending Aus ATC (RADAR)
05:23AM -33.9431 150.8701 85° East 112 129 2,100 -300 Descending Aus ATC (RADAR)
05:24AM -33.9248 150.9061 59° Northeast 118 136 1,600 -540 Descending Aus ATC (RADAR)
05:24AM -33.9119 150.9323 59° Northeast 117 135 1,200 -540 Descending Aus ATC (RADAR)
05:25AM -33.9047 150.9501 64° Northeast 98 113 900 -540 Descending Aus ATC (RADAR)
05:26AM -33.9115 150.9687 114° Southeast 78 90 500 -600 Descending Aus ATC (RADAR)
05:26AM -33.9192 150.9823 124° Southeast 73 84 100 -600 Descending Aus ATC (RADAR)